sensor_id;sensor_type;location;lat;lon;timestamp;pressure;altitude;pressure_sealevel;temperature;humidity
56594;BME280;42474;51.660;5.824;2023-03-26T00:00:40;100670.0;;;9.4;82.5
56594;BME280;42474;51.660;5.824;2023-03-26T00:05:39;100660.0;;;9.5;82.5
56594;BME280;42474;51.660;5.824;2023-03-26T00:10:40;100660.0;;;9.5;82.5
56594;BME280;42474;51.660;5.824;2023-03-26T00:15:39;100650.0;;;9.5;83.0
56594;BME280;42474;51.660;5.824;2023-03-26T00:20:39;100660.0;;;9.6;83.0
56594;BME280;42474;51.660;5.824;2023-03-26T00:25:39;100650.0;;;9.6;83.0
56594;BME280;42474;51.660;5.824;2023-03-26T00:30:39;100650.0;;;9.6;83.0
56594;BME280;42474;51.660;5.824;2023-03-26T00:35:39;100660.0;;;9.7;83.0
56594;BME280;42474;51.660;5.824;2023-03-26T00:40:39;100650.0;;;9.7;83.0
56594;BME280;42474;51.660;5.824;2023-03-26T00:45:39;100640.0;;;9.7;83.0
56594;BME280;42474;51.660;5.824;2023-03-26T00:50:39;100640.0;;;9.7;83.0
56594;BME280;42474;51.660;5.824;2023-03-26T00:55:39;100620.0;;;9.7;83.0
56594;BME280;42474;51.660;5.824;2023-03-26T01:00:45;100620.0;;;9.7;83.0
56594;BME280;42474;51.660;5.824;2023-03-26T01:05:58;100610.0;;;9.7;83.0
56594;BME280;42474;51.660;5.824;2023-03-26T01:10:39;100620.0;;;9.6;83.0
56594;BME280;42474;51.660;5.824;2023-03-26T01:15:39;100600.0;;;9.6;83.0
56594;BME280;42474;51.660;5.824;2023-03-26T01:20:41;100600.0;;;9.5;83.0
56594;BME280;42474;51.660;5.824;2023-03-26T01:25:53;100590.0;;;9.4;83.0
56594;BME280;42474;51.660;5.824;2023-03-26T01:30:57;100580.0;;;9.4;83.0
56594;BME280;42474;51.660;5.824;2023-03-26T01:36:02;100580.0;;;9.3;83.0
56594;BME280;42474;51.660;5.824;2023-03-26T01:40:43;100570.0;;;9.3;83.5
56594;BME280;42474;51.660;5.824;2023-03-26T01:45:43;100550.0;;;9.3;83.5
56594;BME280;42474;51.660;5.824;2023-03-26T01:50:39;100550.0;;;9.2;83.5
56594;BME280;42474;51.660;5.824;2023-03-26T01:55:47;100540.0;;;9.1;83.5
56594;BME280;42474;51.660;5.824;2023-03-26T02:01:15;100540.0;;;9.0;83.5
56594;BME280;42474;51.660;5.824;2023-03-26T02:06:02;100540.0;;;8.9;83.5
56594;BME280;42474;51.660;5.824;2023-03-26T02:10:41;100530.0;;;8.8;83.5
56594;BME280;42474;51.660;5.824;2023-03-26T02:15:39;100530.0;;;8.8;83.5
56594;BME280;42474;51.660;5.824;2023-03-26T02:20:39;100520.0;;;8.8;83.5
56594;BME280;42474;51.660;5.824;2023-03-26T02:25:39;100510.0;;;8.7;83.5
56594;BME280;42474;51.660;5.824;2023-03-26T02:30:39;100510.0;;;8.6;83.5
56594;BME280;42474;51.660;5.824;2023-03-26T02:35:39;100500.0;;;8.6;83.5
56594;BME280;42474;51.660;5.824;2023-03-26T02:40:39;100490.0;;;8.5;84.0
56594;BME280;42474;51.660;5.824;2023-03-26T02:45:39;100480.0;;;8.5;84.0
56594;BME280;42474;51.660;5.824;2023-03-26T02:50:39;100480.0;;;8.5;84.0
56594;BME280;42474;51.660;5.824;2023-03-26T02:55:39;100480.0;;;8.4;84.0
56594;BME280;42474;51.660;5.824;2023-03-26T03:00:39;100470.0;;;8.4;84.0
56594;BME280;42474;51.660;5.824;2023-03-26T03:05:39;100470.0;;;8.3;84.0
56594;BME280;42474;51.660;5.824;2023-03-26T03:10:39;100460.0;;;8.3;84.5
56594;BME280;42474;51.660;5.824;2023-03-26T03:15:39;100440.0;;;8.3;84.5
56594;BME280;42474;51.660;5.824;2023-03-26T03:20:39;100450.0;;;8.3;84.5
56594;BME280;42474;51.660;5.824;2023-03-26T03:25:39;100440.0;;;8.4;84.5
56594;BME280;42474;51.660;5.824;2023-03-26T03:30:39;100430.0;;;8.4;84.5
56594;BME280;42474;51.660;5.824;2023-03-26T03:40:39;100430.0;;;8.3;84.5
56594;BME280;42474;51.660;5.824;2023-03-26T03:45:39;100430.0;;;8.2;84.5
56594;BME280;42474;51.660;5.824;2023-03-26T03:50:39;100410.0;;;8.2;84.5
56594;BME280;42474;51.660;5.824;2023-03-26T03:55:39;100400.0;;;8.1;85.0
56594;BME280;42474;51.660;5.824;2023-03-26T04:00:39;100400.0;;;8.1;85.0
56594;BME280;42474;51.660;5.824;2023-03-26T04:05:39;100400.0;;;8.1;85.0
56594;BME280;42474;51.660;5.824;2023-03-26T04:10:39;100400.0;;;8.1;85.0
56594;BME280;42474;51.660;5.824;2023-03-26T04:15:40;100380.0;;;8.1;85.0
56594;BME280;42474;51.660;5.824;2023-03-26T04:20:41;100370.0;;;8.1;85.5
56594;BME280;42474;51.660;5.824;2023-03-26T04:25:39;100380.0;;;8.1;85.5
56594;BME280;42474;51.660;5.824;2023-03-26T04:30:39;100370.0;;;8.1;85.5
56594;BME280;42474;51.660;5.824;2023-03-26T04:35:39;100360.0;;;8.1;85.5
56594;BME280;42474;51.660;5.824;2023-03-26T04:40:39;100350.0;;;8.0;85.5
56594;BME280;42474;51.660;5.824;2023-03-26T04:45:39;100350.0;;;8.0;86.0
56594;BME280;42474;51.660;5.824;2023-03-26T04:50:39;100340.0;;;8.0;86.0
56594;BME280;42474;51.660;5.824;2023-03-26T04:55:45;100340.0;;;8.1;86.0
56594;BME280;42474;51.660;5.824;2023-03-26T05:00:39;100320.0;;;8.1;86.0
56594;BME280;42474;51.660;5.824;2023-03-26T05:05:39;100310.0;;;8.1;86.5
56594;BME280;42474;51.660;5.824;2023-03-26T05:10:39;100300.0;;;8.2;86.5
56594;BME280;42474;51.660;5.824;2023-03-26T05:15:39;100300.0;;;8.2;87.0
56594;BME280;42474;51.660;5.824;2023-03-26T05:20:39;100280.0;;;8.2;87.0
56594;BME280;42474;51.660;5.824;2023-03-26T05:25:39;100270.0;;;8.2;87.0
56594;BME280;42474;51.660;5.824;2023-03-26T05:30:41;100270.0;;;8.2;87.5
56594;BME280;42474;51.660;5.824;2023-03-26T05:35:39;100250.0;;;8.2;87.5
56594;BME280;42474;51.660;5.824;2023-03-26T05:40:39;100260.0;;;8.3;87.5
56594;BME280;42474;51.660;5.824;2023-03-26T05:45:39;100250.0;;;8.2;87.5
56594;BME280;42474;51.660;5.824;2023-03-26T05:50:39;100230.0;;;8.2;88.0
56594;BME280;42474;51.660;5.824;2023-03-26T05:55:39;100240.0;;;8.1;88.0
56594;BME280;42474;51.660;5.824;2023-03-26T06:00:39;100230.0;;;8.1;88.0
56594;BME280;42474;51.660;5.824;2023-03-26T06:05:39;100230.0;;;8.1;88.0
56594;BME280;42474;51.660;5.824;2023-03-26T06:10:39;100220.0;;;8.1;88.5
56594;BME280;42474;51.660;5.824;2023-03-26T06:15:39;100220.0;;;8.1;89.0
56594;BME280;42474;51.660;5.824;2023-03-26T06:20:40;100220.0;;;8.2;89.0
56594;BME280;42474;51.660;5.824;2023-03-26T06:25:39;100200.0;;;8.2;88.5
56594;BME280;42474;51.660;5.824;2023-03-26T06:35:39;100190.0;;;8.3;89.0
56594;BME280;42474;51.660;5.824;2023-03-26T06:40:39;100200.0;;;8.3;89.0
56594;BME280;42474;51.660;5.824;2023-03-26T06:45:39;100190.0;;;8.3;89.5
56594;BME280;42474;51.660;5.824;2023-03-26T06:50:39;100190.0;;;8.4;89.5
56594;BME280;42474;51.660;5.824;2023-03-26T06:55:39;100190.0;;;8.4;89.5
56594;BME280;42474;51.660;5.824;2023-03-26T07:00:39;100190.0;;;8.5;89.5
56594;BME280;42474;51.660;5.824;2023-03-26T07:05:39;100190.0;;;8.5;89.5
56594;BME280;42474;51.660;5.824;2023-03-26T07:10:40;100190.0;;;8.5;89.5
56594;BME280;42474;51.660;5.824;2023-03-26T07:15:39;100190.0;;;8.6;89.5
56594;BME280;42474;51.660;5.824;2023-03-26T07:20:39;100190.0;;;8.6;90.0
56594;BME280;42474;51.660;5.824;2023-03-26T07:25:40;100180.0;;;8.5;90.5
56594;BME280;42474;51.660;5.824;2023-03-26T07:30:52;100180.0;;;8.5;90.5
56594;BME280;42474;51.660;5.824;2023-03-26T07:36:00;100190.0;;;8.6;90.5
56594;BME280;42474;51.660;5.824;2023-03-26T07:41:14;100180.0;;;8.6;90.5
56594;BME280;42474;51.660;5.824;2023-03-26T07:45:44;100180.0;;;8.7;90.5
56594;BME280;42474;51.660;5.824;2023-03-26T07:50:39;100170.0;;;8.7;90.0
56594;BME280;42474;51.660;5.824;2023-03-26T07:55:45;100170.0;;;8.8;90.5
56594;BME280;42474;51.660;5.824;2023-03-26T08:00:54;100170.0;;;8.8;90.5
56594;BME280;42474;51.660;5.824;2023-03-26T08:05:47;100160.0;;;8.8;91.0
56594;BME280;42474;51.660;5.824;2023-03-26T08:11:22;100170.0;;;8.8;91.0
56594;BME280;42474;51.660;5.824;2023-03-26T08:16:24;100160.0;;;8.9;91.0
56594;BME280;42474;51.660;5.824;2023-03-26T08:21:06;100160.0;;;8.9;91.0
56594;BME280;42474;51.660;5.824;2023-03-26T08:26:23;100160.0;;;9.0;91.5
56594;BME280;42474;51.660;5.824;2023-03-26T08:30:39;100150.0;;;9.0;91.5
56594;BME280;42474;51.660;5.824;2023-03-26T08:35:39;100150.0;;;9.1;91.5
56594;BME280;42474;51.660;5.824;2023-03-26T08:41:11;100140.0;;;9.2;91.0
56594;BME280;42474;51.660;5.824;2023-03-26T08:49:31;100140.0;;;9.4;91.0
56594;BME280;42474;51.660;5.824;2023-03-26T08:56:00;100140.0;;;9.6;90.5
56594;BME280;42474;51.660;5.824;2023-03-26T09:03:25;100140.0;;;9.7;90.5
56594;BME280;42474;51.660;5.824;2023-03-26T09:11:22;100120.0;;;9.8;90.5
56594;BME280;42474;51.660;5.824;2023-03-26T09:19:27;100120.0;;;9.8;90.0
56594;BME280;42474;51.660;5.824;2023-03-26T09:26:45;100130.0;;;9.9;90.0
56594;BME280;42474;51.660;5.824;2023-03-26T09:34:11;100120.0;;;10.0;90.0
56594;BME280;42474;51.660;5.824;2023-03-26T09:38:42;100120.0;;;10.1;90.0
56594;BME280;42474;51.660;5.824;2023-03-26T09:43:33;100120.0;;;10.2;90.0
56594;BME280;42474;51.660;5.824;2023-03-26T09:50:19;100110.0;;;10.2;89.5
56594;BME280;42474;51.660;5.824;2023-03-26T09:55:32;100110.0;;;10.3;89.5
56594;BME280;42474;51.660;5.824;2023-03-26T10:01:19;100120.0;;;10.3;89.5
56594;BME280;42474;51.660;5.824;2023-03-26T10:06:31;100120.0;;;10.5;89.5
56594;BME280;42474;51.660;5.824;2023-03-26T10:12:00;100120.0;;;10.5;89.0
56594;BME280;42474;51.660;5.824;2023-03-26T10:16:37;100120.0;;;10.5;89.0
56594;BME280;42474;51.660;5.824;2023-03-26T10:23:16;100110.0;;;10.6;88.5
56594;BME280;42474;51.660;5.824;2023-03-26T10:29:05;100110.0;;;10.5;88.5
56594;BME280;42474;51.660;5.824;2023-03-26T10:35:04;100110.0;;;10.5;87.0
56594;BME280;42474;51.660;5.824;2023-03-26T10:40:08;100110.0;;;10.3;88.0
56594;BME280;42474;51.660;5.824;2023-03-26T10:46:18;100110.0;;;10.3;88.5
56594;BME280;42474;51.660;5.824;2023-03-26T10:52:11;100120.0;;;10.4;88.5
56594;BME280;42474;51.660;5.824;2023-03-26T10:55:47;100120.0;;;10.4;88.0
56594;BME280;42474;51.660;5.824;2023-03-26T10:58:28;100120.0;;;10.5;88.0
56594;BME280;42474;51.660;5.824;2023-03-26T10:58:37;100120.0;;;10.5;87.5
56594;BME280;42474;51.660;5.824;2023-03-26T10:58:45;100120.0;;;10.6;87.0
56594;BME280;42474;51.660;5.824;2023-03-26T10:59:17;100130.0;;;10.6;87.0
56594;BME280;42474;51.660;5.824;2023-03-26T10:59:29;100130.0;;;10.6;86.5
56594;BME280;42474;51.660;5.824;2023-03-26T11:01:00;100130.0;;;10.6;85.5
56594;BME280;42474;51.660;5.824;2023-03-26T11:06:25;100130.0;;;10.5;86.0
56594;BME280;42474;51.660;5.824;2023-03-26T11:10:52;100130.0;;;10.5;85.0
56594;BME280;42474;51.660;5.824;2023-03-26T11:16:09;100130.0;;;10.3;86.0
56594;BME280;42474;51.660;5.824;2023-03-26T11:20:47;100130.0;;;10.3;86.0
56594;BME280;42474;51.660;5.824;2023-03-26T11:26:42;100130.0;;;10.3;86.5
56594;BME280;42474;51.660;5.824;2023-03-26T11:31:44;100140.0;;;10.3;87.0
56594;BME280;42474;51.660;5.824;2023-03-26T11:35:43;100150.0;;;10.3;87.0
56594;BME280;42474;51.660;5.824;2023-03-26T11:40:43;100150.0;;;10.3;87.0
56594;BME280;42474;51.660;5.824;2023-03-26T11:45:42;100150.0;;;10.3;86.5
56594;BME280;42474;51.660;5.824;2023-03-26T11:50:43;100150.0;;;10.2;87.0
56594;BME280;42474;51.660;5.824;2023-03-26T11:55:43;100150.0;;;10.3;87.5
56594;BME280;42474;51.660;5.824;2023-03-26T12:00:39;100150.0;;;10.3;86.0
56594;BME280;42474;51.660;5.824;2023-03-26T12:05:56;100150.0;;;10.4;86.5
56594;BME280;42474;51.660;5.824;2023-03-26T12:10:41;100160.0;;;10.5;86.5
56594;BME280;42474;51.660;5.824;2023-03-26T12:15:42;100160.0;;;10.4;87.0
56594;BME280;42474;51.660;5.824;2023-03-26T12:20:39;100160.0;;;10.4;87.0
56594;BME280;42474;51.660;5.824;2023-03-26T12:25:39;100160.0;;;10.5;86.5
56594;BME280;42474;51.660;5.824;2023-03-26T12:30:41;100170.0;;;10.5;86.5
56594;BME280;42474;51.660;5.824;2023-03-26T12:35:40;100160.0;;;10.7;86.5
56594;BME280;42474;51.660;5.824;2023-03-26T12:40:39;100170.0;;;10.7;85.5
56594;BME280;42474;51.660;5.824;2023-03-26T12:45:41;100170.0;;;10.9;85.5
56594;BME280;42474;51.660;5.824;2023-03-26T12:51:06;100170.0;;;11.0;85.0
56594;BME280;42474;51.660;5.824;2023-03-26T12:56:11;100180.0;;;11.1;84.5
56594;BME280;42474;51.660;5.824;2023-03-26T13:01:34;100180.0;;;11.1;84.5
56594;BME280;42474;51.660;5.824;2023-03-26T13:07:27;100190.0;;;11.2;83.5
56594;BME280;42474;51.660;5.824;2023-03-26T13:12:42;100190.0;;;11.0;83.5
56594;BME280;42474;51.660;5.824;2023-03-26T13:17:31;100200.0;;;10.8;83.5
56594;BME280;42474;51.660;5.824;2023-03-26T13:22:17;100210.0;;;10.5;84.0
56594;BME280;42474;51.660;5.824;2023-03-26T13:28:36;100210.0;;;10.3;85.0
56594;BME280;42474;51.660;5.824;2023-03-26T13:33:51;100200.0;;;10.2;86.0
56594;BME280;42474;51.660;5.824;2023-03-26T13:38:35;100210.0;;;10.2;86.5
56594;BME280;42474;51.660;5.824;2023-03-26T13:44:31;100210.0;;;10.1;87.5
56594;BME280;42474;51.660;5.824;2023-03-26T13:48:23;100220.0;;;10.1;88.0
56594;BME280;42474;51.660;5.824;2023-03-26T13:52:07;100220.0;;;10.3;88.5
56594;BME280;42474;51.660;5.824;2023-03-26T13:55:43;100220.0;;;10.3;88.0
56594;BME280;42474;51.660;5.824;2023-03-26T14:00:53;100230.0;;;10.3;87.5
56594;BME280;42474;51.660;5.824;2023-03-26T14:05:46;100230.0;;;10.2;87.0
56594;BME280;42474;51.660;5.824;2023-03-26T14:10:47;100240.0;;;10.0;87.0
56594;BME280;42474;51.660;5.824;2023-03-26T14:15:43;100260.0;;;9.8;88.0
56594;BME280;42474;51.660;5.824;2023-03-26T14:23:02;100270.0;;;9.6;87.5
56594;BME280;42474;51.660;5.824;2023-03-26T14:29:08;100280.0;;;9.4;88.0
56594;BME280;42474;51.660;5.824;2023-03-26T14:35:10;100280.0;;;9.3;88.5
56594;BME280;42474;51.660;5.824;2023-03-26T14:40:39;100290.0;;;9.3;88.5
56594;BME280;42474;51.660;5.824;2023-03-26T14:46:34;100290.0;;;9.2;89.0
56594;BME280;42474;51.660;5.824;2023-03-26T14:50:39;100310.0;;;9.2;88.5
56594;BME280;42474;51.660;5.824;2023-03-26T14:54:01;100310.0;;;9.3;88.5
56594;BME280;42474;51.660;5.824;2023-03-26T14:59:43;100310.0;;;9.4;88.0
56594;BME280;42474;51.660;5.824;2023-03-26T15:09:10;100320.0;;;9.4;87.5
56594;BME280;42474;51.660;5.824;2023-03-26T15:15:32;100320.0;;;9.5;88.5
56594;BME280;42474;51.660;5.824;2023-03-26T15:24:08;100320.0;;;9.6;87.5
56594;BME280;42474;51.660;5.824;2023-03-26T15:31:32;100330.0;;;9.7;87.5
56594;BME280;42474;51.660;5.824;2023-03-26T15:39:23;100340.0;;;9.7;87.5
56594;BME280;42474;51.660;5.824;2023-03-26T15:43:20;100350.0;;;9.8;85.5
56594;BME280;42474;51.660;5.824;2023-03-26T15:48:04;100360.0;;;9.7;86.0
56594;BME280;42474;51.660;5.824;2023-03-26T15:53:26;100370.0;;;9.8;85.5
56594;BME280;42474;51.660;5.824;2023-03-26T15:58:13;100370.0;;;9.8;83.0
56594;BME280;42474;51.660;5.824;2023-03-26T16:03:38;100400.0;;;9.7;83.0
56594;BME280;42474;51.660;5.824;2023-03-26T16:08:27;100400.0;;;9.6;81.0
56594;BME280;42474;51.660;5.824;2023-03-26T16:11:10;100410.0;;;9.5;78.0
56594;BME280;42474;51.660;5.824;2023-03-26T16:14:44;100430.0;;;9.4;78.5
56594;BME280;42474;51.660;5.824;2023-03-26T16:15:48;100440.0;;;9.4;78.5
56594;BME280;42474;51.660;5.824;2023-03-26T16:17:25;100440.0;;;9.5;77.5
56594;BME280;42474;51.660;5.824;2023-03-26T16:20:54;100450.0;;;9.5;77.0
56594;BME280;42474;51.660;5.824;2023-03-26T16:24:25;100460.0;;;9.4;78.0
56594;BME280;42474;51.660;5.824;2023-03-26T16:27:36;100470.0;;;9.5;76.0
56594;BME280;42474;51.660;5.824;2023-03-26T16:30:39;100490.0;;;9.4;74.0
56594;BME280;42474;51.660;5.824;2023-03-26T16:36:14;100490.0;;;9.3;73.0
56594;BME280;42474;51.660;5.824;2023-03-26T16:40:49;100510.0;;;9.2;72.0
56594;BME280;42474;51.660;5.824;2023-03-26T16:46:27;100520.0;;;9.1;72.0
56594;BME280;42474;51.660;5.824;2023-03-26T16:51:07;100540.0;;;9.0;74.0
56594;BME280;42474;51.660;5.824;2023-03-26T16:56:15;100550.0;;;9.0;73.5
56594;BME280;42474;51.660;5.824;2023-03-26T17:01:38;100560.0;;;8.9;70.0
56594;BME280;42474;51.660;5.824;2023-03-26T17:06:04;100580.0;;;8.8;68.0
56594;BME280;42474;51.660;5.824;2023-03-26T17:10:56;100590.0;;;8.7;69.0
56594;BME280;42474;51.660;5.824;2023-03-26T17:15:52;100600.0;;;8.6;69.5
56594;BME280;42474;51.660;5.824;2023-03-26T17:20:59;100610.0;;;8.5;69.5
56594;BME280;42474;51.660;5.824;2023-03-26T17:25:59;100620.0;;;8.5;70.0
56594;BME280;42474;51.660;5.824;2023-03-26T17:31:38;100630.0;;;8.4;68.5
56594;BME280;42474;51.660;5.824;2023-03-26T17:35:41;100650.0;;;8.4;67.0
56594;BME280;42474;51.660;5.824;2023-03-26T17:41:00;100670.0;;;8.3;66.0
56594;BME280;42474;51.660;5.824;2023-03-26T17:45:42;100680.0;;;8.2;67.5
56594;BME280;42474;51.660;5.824;2023-03-26T17:50:46;100690.0;;;8.2;65.5
56594;BME280;42474;51.660;5.824;2023-03-26T17:55:42;100690.0;;;8.1;64.0
56594;BME280;42474;51.660;5.824;2023-03-26T18:00:41;100710.0;;;8.0;64.5
56594;BME280;42474;51.660;5.824;2023-03-26T18:05:40;100720.0;;;8.0;65.0
56594;BME280;42474;51.660;5.824;2023-03-26T18:12:40;100730.0;;;8.0;66.0
56594;BME280;42474;51.660;5.824;2023-03-26T18:17:02;100740.0;;;7.9;66.5
56594;BME280;42474;51.660;5.824;2023-03-26T18:20:39;100750.0;;;7.9;66.5
56594;BME280;42474;51.660;5.824;2023-03-26T18:25:39;100770.0;;;7.9;66.5
56594;BME280;42474;51.660;5.824;2023-03-26T18:30:47;100780.0;;;7.9;64.5
56594;BME280;42474;51.660;5.824;2023-03-26T18:35:54;100790.0;;;7.8;64.5
56594;BME280;42474;51.660;5.824;2023-03-26T18:40:41;100800.0;;;7.8;63.0
56594;BME280;42474;51.660;5.824;2023-03-26T18:45:40;100810.0;;;7.7;65.0
56594;BME280;42474;51.660;5.824;2023-03-26T18:50:40;100820.0;;;7.6;65.5
56594;BME280;42474;51.660;5.824;2023-03-26T18:55:40;100820.0;;;7.6;65.5
56594;BME280;42474;51.660;5.824;2023-03-26T19:00:41;100840.0;;;7.5;64.5
56594;BME280;42474;51.660;5.824;2023-03-26T19:05:39;100850.0;;;7.4;64.0
56594;BME280;42474;51.660;5.824;2023-03-26T19:10:39;100860.0;;;7.4;64.5
56594;BME280;42474;51.660;5.824;2023-03-26T19:15:40;100870.0;;;7.3;64.5
56594;BME280;42474;51.660;5.824;2023-03-26T19:20:44;100880.0;;;7.3;65.0
56594;BME280;42474;51.660;5.824;2023-03-26T19:25:41;100890.0;;;7.2;63.5
56594;BME280;42474;51.660;5.824;2023-03-26T19:30:39;100900.0;;;7.2;64.0
56594;BME280;42474;51.660;5.824;2023-03-26T19:35:41;100910.0;;;7.2;61.0
56594;BME280;42474;51.660;5.824;2023-03-26T19:40:40;100940.0;;;7.1;62.0
56594;BME280;42474;51.660;5.824;2023-03-26T19:45:41;100930.0;;;7.1;63.0
56594;BME280;42474;51.660;5.824;2023-03-26T19:50:41;100930.0;;;7.0;61.0
56594;BME280;42474;51.660;5.824;2023-03-26T19:55:39;100950.0;;;7.0;62.0
56594;BME280;42474;51.660;5.824;2023-03-26T20:00:39;100970.0;;;6.9;63.0
56594;BME280;42474;51.660;5.824;2023-03-26T20:05:39;100980.0;;;6.9;63.5
56594;BME280;42474;51.660;5.824;2023-03-26T20:10:40;100980.0;;;6.9;63.5
56594;BME280;42474;51.660;5.824;2023-03-26T20:15:39;101000.0;;;6.8;63.5
56594;BME280;42474;51.660;5.824;2023-03-26T20:20:39;101000.0;;;6.7;63.5
56594;BME280;42474;51.660;5.824;2023-03-26T20:25:45;101030.0;;;6.7;63.0
56594;BME280;42474;51.660;5.824;2023-03-26T20:30:39;101030.0;;;6.6;63.5
56594;BME280;42474;51.660;5.824;2023-03-26T20:35:39;101040.0;;;6.5;63.0
56594;BME280;42474;51.660;5.824;2023-03-26T20:40:39;101050.0;;;6.4;63.5
56594;BME280;42474;51.660;5.824;2023-03-26T20:45:40;101050.0;;;6.2;64.0
56594;BME280;42474;51.660;5.824;2023-03-26T20:50:40;101070.0;;;6.0;64.0
56594;BME280;42474;51.660;5.824;2023-03-26T20:55:39;101080.0;;;5.9;64.5
56594;BME280;42474;51.660;5.824;2023-03-26T21:00:40;101090.0;;;5.8;65.0
56594;BME280;42474;51.660;5.824;2023-03-26T21:05:40;101100.0;;;5.6;65.5
56594;BME280;42474;51.660;5.824;2023-03-26T21:10:39;101110.0;;;5.5;66.0
56594;BME280;42474;51.660;5.824;2023-03-26T21:15:40;101110.0;;;5.5;66.5
56594;BME280;42474;51.660;5.824;2023-03-26T21:20:41;101120.0;;;5.4;66.5
56594;BME280;42474;51.660;5.824;2023-03-26T21:25:55;101130.0;;;5.3;67.0
56594;BME280;42474;51.660;5.824;2023-03-26T21:30:39;101140.0;;;5.2;67.5
56594;BME280;42474;51.660;5.824;2023-03-26T21:35:39;101150.0;;;5.2;67.5
56594;BME280;42474;51.660;5.824;2023-03-26T21:40:39;101170.0;;;5.1;68.0
56594;BME280;42474;51.660;5.824;2023-03-26T21:45:39;101170.0;;;5.1;68.0
56594;BME280;42474;51.660;5.824;2023-03-26T21:50:40;101180.0;;;5.1;68.5
56594;BME280;42474;51.660;5.824;2023-03-26T21:56:03;101190.0;;;5.1;69.5
56594;BME280;42474;51.660;5.824;2023-03-26T22:01:06;101200.0;;;5.1;69.5
56594;BME280;42474;51.660;5.824;2023-03-26T22:05:46;101210.0;;;5.1;69.5
56594;BME280;42474;51.660;5.824;2023-03-26T22:10:39;101220.0;;;5.0;69.5
56594;BME280;42474;51.660;5.824;2023-03-26T22:15:39;101230.0;;;5.0;69.5
56594;BME280;42474;51.660;5.824;2023-03-26T22:20:40;101230.0;;;4.9;70.0
56594;BME280;42474;51.660;5.824;2023-03-26T22:25:39;101250.0;;;4.8;70.0
56594;BME280;42474;51.660;5.824;2023-03-26T22:30:39;101260.0;;;4.6;70.0
56594;BME280;42474;51.660;5.824;2023-03-26T22:35:40;101270.0;;;4.6;70.0
56594;BME280;42474;51.660;5.824;2023-03-26T22:40:39;101260.0;;;4.5;70.5
56594;BME280;42474;51.660;5.824;2023-03-26T22:45:39;101270.0;;;4.4;71.0
56594;BME280;42474;51.660;5.824;2023-03-26T22:50:39;101280.0;;;4.3;70.5
56594;BME280;42474;51.660;5.824;2023-03-26T22:55:39;101290.0;;;4.2;71.0
56594;BME280;42474;51.660;5.824;2023-03-26T23:00:39;101300.0;;;4.1;71.0
56594;BME280;42474;51.660;5.824;2023-03-26T23:05:39;101310.0;;;4.0;71.0
56594;BME280;42474;51.660;5.824;2023-03-26T23:10:40;101330.0;;;4.0;71.5
56594;BME280;42474;51.660;5.824;2023-03-26T23:15:39;101330.0;;;4.0;71.5
56594;BME280;42474;51.660;5.824;2023-03-26T23:20:39;101350.0;;;3.9;71.5
56594;BME280;42474;51.660;5.824;2023-03-26T23:25:42;101350.0;;;3.9;72.0
56594;BME280;42474;51.660;5.824;2023-03-26T23:30:39;101360.0;;;3.8;72.0
56594;BME280;42474;51.660;5.824;2023-03-26T23:35:39;101360.0;;;3.8;72.0
56594;BME280;42474;51.660;5.824;2023-03-26T23:40:41;101380.0;;;3.8;72.5
56594;BME280;42474;51.660;5.824;2023-03-26T23:45:42;101380.0;;;3.8;72.5
56594;BME280;42474;51.660;5.824;2023-03-26T23:50:39;101400.0;;;3.7;72.5
56594;BME280;42474;51.660;5.824;2023-03-26T23:55:39;101410.0;;;3.7;72.5
